createdAt,value
2023-10-12T00:00:02.962Z,17.40
2023-10-12T00:03:45.817Z,19.90
2023-10-12T00:06:48.508Z,16.90
2023-10-12T00:10:11.145Z,15.60
2023-10-12T00:13:42.285Z,20.80
2023-10-12T00:17:10.657Z,15.70
2023-10-12T00:20:43.052Z,17.80
2023-10-12T00:23:57.159Z,17.20
2023-10-12T00:27:39.269Z,14.30
2023-10-12T00:30:59.724Z,17.20
2023-10-12T00:34:09.795Z,16.40
2023-10-12T00:37:51.686Z,14.30
2023-10-12T00:41:25.870Z,16.80
2023-10-12T00:44:48.766Z,25.80
2023-10-12T00:48:38.189Z,15.00
2023-10-12T00:52:35.736Z,15.90
2023-10-12T00:56:18.191Z,18.80
2023-10-12T00:59:59.352Z,18.70
2023-10-12T01:03:28.758Z,19.80
2023-10-12T01:07:02.923Z,15.80
2023-10-12T01:10:28.155Z,16.90
2023-10-12T01:14:20.466Z,16.90
2023-10-12T01:17:45.453Z,19.90
2023-10-12T01:21:04.107Z,14.10
2023-10-12T01:24:18.097Z,16.40
2023-10-12T01:27:29.459Z,20.70
2023-10-12T01:31:04.093Z,17.60
2023-10-12T01:34:24.746Z,14.40
2023-10-12T01:38:14.505Z,14.40
2023-10-12T01:42:03.704Z,21.00
2023-10-12T01:45:53.717Z,19.50
2023-10-12T01:49:20.438Z,19.70
2023-10-12T01:53:01.687Z,16.10
2023-10-12T01:56:42.302Z,13.70
2023-10-12T02:00:31.745Z,18.80
2023-10-12T02:04:21.400Z,13.40
2023-10-12T02:07:57.619Z,15.80
2023-10-12T02:11:39.835Z,16.80
2023-10-12T02:15:30.672Z,15.40
2023-10-12T02:19:22.548Z,17.70
2023-10-12T02:23:12.637Z,17.00
2023-10-12T02:27:11.234Z,14.70
2023-10-12T02:31:01.182Z,18.60
2023-10-12T02:35:11.153Z,14.40
2023-10-12T02:39:02.020Z,13.90
2023-10-12T02:43:00.535Z,23.80
2023-10-12T02:47:21.857Z,16.50
2023-10-12T02:51:21.323Z,14.90
2023-10-12T02:55:11.281Z,16.20
2023-10-12T02:59:03.321Z,19.20
2023-10-12T03:02:57.408Z,17.10
2023-10-12T03:06:51.188Z,22.00
2023-10-12T03:10:52.669Z,18.60
2023-10-12T03:14:34.293Z,17.70
2023-10-12T03:18:23.980Z,17.60
2023-10-12T03:22:14.426Z,17.90
2023-10-12T03:26:08.903Z,17.30
2023-10-12T03:29:58.471Z,16.50
2023-10-12T03:33:51.856Z,19.10
2023-10-12T03:37:44.011Z,19.10
2023-10-12T03:41:44.587Z,18.70
2023-10-12T03:45:50.334Z,19.30
2023-10-12T03:53:25.502Z,14.30
2023-10-12T03:57:15.909Z,14.10
2023-10-12T04:01:11.220Z,19.70
2023-10-12T04:04:45.059Z,15.80
2023-10-12T04:08:49.108Z,17.30
2023-10-12T04:12:39.735Z,16.50
2023-10-12T04:16:41.862Z,16.40
2023-10-12T04:20:51.565Z,16.30
2023-10-12T04:25:04.912Z,16.40
2023-10-12T04:29:19.972Z,15.90
2023-10-12T04:33:13.435Z,15.00
2023-10-12T04:37:05.640Z,16.20
2023-10-12T04:40:58.977Z,15.10
2023-10-12T04:44:51.605Z,22.90
2023-10-12T04:48:43.724Z,17.70
2023-10-12T04:52:35.654Z,15.80
2023-10-12T04:56:09.119Z,19.90
2023-10-12T05:00:03.928Z,20.70
2023-10-12T05:03:54.796Z,18.30
2023-10-12T05:07:48.297Z,15.70
2023-10-12T05:11:39.092Z,18.20
2023-10-12T05:15:29.996Z,23.90
2023-10-12T05:19:20.615Z,25.20
2023-10-12T05:23:12.697Z,19.80
2023-10-12T05:27:02.806Z,14.30
2023-10-12T05:31:00.548Z,19.40
2023-10-12T05:35:00.273Z,18.00
2023-10-12T05:38:58.407Z,19.60
2023-10-12T05:42:48.501Z,13.90
2023-10-12T05:46:55.600Z,20.00
2023-10-12T05:50:45.848Z,22.80
2023-10-12T05:54:41.752Z,14.90
2023-10-12T05:58:31.480Z,18.10
2023-10-12T06:02:24.269Z,17.40
2023-10-12T06:06:14.575Z,17.60
2023-10-12T06:10:05.629Z,18.50
2023-10-12T06:14:02.705Z,27.70
2023-10-12T06:17:53.559Z,22.50
2023-10-12T06:21:45.614Z,18.20
2023-10-12T06:26:05.914Z,27.00
2023-10-12T06:29:47.244Z,22.60
2023-10-12T06:33:37.777Z,19.00
2023-10-12T06:37:29.678Z,22.20
2023-10-12T06:42:01.568Z,23.10
2023-10-12T06:46:31.189Z,21.90
2023-10-12T06:50:52.178Z,16.40
2023-10-12T06:55:00.329Z,18.40
2023-10-12T06:59:42.257Z,19.60
2023-10-12T07:14:34.742Z,16.60
2023-10-12T07:18:28.096Z,18.20
2023-10-12T07:22:15.909Z,18.80
2023-10-12T07:25:44.986Z,18.00
2023-10-12T07:28:54.531Z,21.80
2023-10-12T07:32:18.416Z,22.70
2023-10-12T07:36:09.554Z,22.60
2023-10-12T07:40:00.757Z,25.80
2023-10-12T07:43:46.864Z,21.90
2023-10-12T07:47:25.377Z,20.80
2023-10-12T07:50:56.517Z,19.20
2023-10-12T07:54:46.893Z,17.20
2023-10-12T07:58:26.192Z,22.60
2023-10-12T08:02:09.571Z,19.90
2023-10-12T08:05:46.325Z,16.90
2023-10-12T08:09:45.763Z,15.70
2023-10-12T08:13:38.800Z,20.50
2023-10-12T08:17:23.625Z,19.30
2023-10-12T08:20:58.404Z,19.60
2023-10-12T08:24:42.083Z,18.60
2023-10-12T08:28:30.204Z,18.80
2023-10-12T08:32:07.977Z,17.00
2023-10-12T08:35:54.090Z,16.40
2023-10-12T08:39:47.189Z,16.70
2023-10-12T08:43:09.820Z,17.60
2023-10-12T08:47:15.949Z,17.80
2023-10-12T08:50:21.955Z,19.30
2023-10-12T08:54:09.981Z,15.90
2023-10-12T08:58:06.878Z,18.90
2023-10-12T09:01:44.199Z,16.90
2023-10-12T09:05:06.039Z,18.60
2023-10-12T09:09:18.605Z,17.20
2023-10-12T09:12:40.428Z,17.40
2023-10-12T09:16:30.122Z,18.60
2023-10-12T09:20:11.884Z,17.10
2023-10-12T09:23:41.670Z,18.70
2023-10-12T09:27:24.985Z,18.40
2023-10-12T09:31:15.512Z,14.80
2023-10-12T09:34:53.619Z,16.30
2023-10-12T09:38:25.713Z,20.50
2023-10-12T09:42:17.724Z,12.90
2023-10-12T09:45:40.705Z,16.60
2023-10-12T09:49:28.908Z,18.20
2023-10-12T09:53:09.510Z,18.20
2023-10-12T09:56:59.600Z,20.90
2023-10-12T10:00:31.520Z,18.00
2023-10-12T10:04:21.601Z,16.00
2023-10-12T10:08:13.605Z,18.40
2023-10-12T10:11:54.186Z,15.90
2023-10-12T10:15:36.372Z,18.80
2023-10-12T10:19:27.948Z,19.50
2023-10-12T10:22:42.845Z,21.20
2023-10-12T10:26:41.341Z,22.50
2023-10-12T10:31:00.148Z,19.50
2023-10-12T10:34:48.174Z,16.60
2023-10-12T10:38:40.330Z,15.10
2023-10-12T10:42:23.736Z,8.30
2023-10-12T10:46:18.218Z,5.90
2023-10-12T10:50:06.109Z,7.90
2023-10-12T10:53:57.069Z,5.60
2023-10-12T10:57:35.904Z,3.20
2023-10-12T11:01:07.625Z,7.30
2023-10-12T11:04:55.180Z,4.40
2023-10-12T11:08:48.095Z,5.30
2023-10-12T11:12:39.037Z,4.70
2023-10-12T11:15:56.374Z,5.40
2023-10-12T11:19:32.805Z,4.00
2023-10-12T11:23:21.949Z,5.20
2023-10-12T11:26:39.721Z,6.10
2023-10-12T11:30:29.255Z,5.90
2023-10-12T11:34:08.935Z,5.70
2023-10-12T11:37:51.499Z,7.50
2023-10-12T11:41:41.931Z,7.50
2023-10-12T11:45:36.311Z,10.50
2023-10-12T11:49:24.568Z,10.90
2023-10-12T11:53:12.836Z,12.50
2023-10-12T11:57:01.211Z,10.50
2023-10-12T12:00:29.317Z,12.50
2023-10-12T12:04:18.251Z,12.70
2023-10-12T12:07:48.796Z,11.40
2023-10-12T12:11:20.779Z,11.70
2023-10-12T12:14:54.234Z,12.50
2023-10-12T12:18:42.305Z,12.70
2023-10-12T12:22:36.778Z,10.50
2023-10-12T12:26:26.340Z,8.40
2023-10-12T12:34:02.395Z,12.70
2023-10-12T12:37:51.545Z,10.40
2023-10-12T12:41:39.545Z,14.20
2023-10-12T12:45:27.969Z,13.00
2023-10-12T12:49:16.005Z,10.40
2023-10-12T12:53:07.055Z,11.90
2023-10-12T12:56:36.140Z,9.30
2023-10-12T13:00:26.186Z,11.80
2023-10-12T13:04:13.809Z,10.30
2023-10-12T13:07:55.583Z,12.30
2023-10-12T13:11:37.169Z,11.70
2023-10-12T13:15:21.407Z,11.40
2023-10-12T13:19:09.629Z,10.40
2023-10-12T13:22:43.774Z,10.70
2023-10-12T13:26:16.933Z,15.40
2023-10-12T13:29:58.836Z,15.00
2023-10-12T13:33:46.807Z,13.80
2023-10-12T13:37:27.063Z,15.90
2023-10-12T13:41:17.201Z,12.50
2023-10-12T13:45:03.699Z,11.80
2023-10-12T13:48:51.573Z,10.80
2023-10-12T13:52:41.164Z,13.80
2023-10-12T13:56:28.841Z,11.20
2023-10-12T14:00:17.518Z,12.90
2023-10-12T14:04:00.547Z,12.70
2023-10-12T14:07:19.055Z,13.10
2023-10-12T14:11:07.418Z,13.20
2023-10-12T14:14:55.422Z,10.00
2023-10-12T14:18:43.125Z,9.90
2023-10-12T14:22:22.674Z,12.20
2023-10-12T14:26:10.755Z,10.50
2023-10-12T14:29:59.576Z,10.50
2023-10-12T14:33:51.519Z,13.70
2023-10-12T14:37:41.326Z,12.10
2023-10-12T14:41:28.345Z,13.40
2023-10-12T14:45:07.946Z,9.60
2023-10-12T14:48:56.206Z,13.30
2023-10-12T14:52:36.381Z,12.70
2023-10-12T14:56:25.433Z,10.90
2023-10-12T15:00:14.583Z,11.10
2023-10-12T15:04:03.771Z,12.50
2023-10-12T15:07:52.409Z,11.90
2023-10-12T15:11:42.026Z,11.40
2023-10-12T15:15:10.963Z,14.30
2023-10-12T15:19:05.147Z,11.10
2023-10-12T15:22:53.155Z,11.90
2023-10-12T15:26:38.388Z,14.90
2023-10-12T15:30:26.324Z,12.50
2023-10-12T15:34:15.806Z,13.30
2023-10-12T15:37:43.600Z,8.60
2023-10-12T15:41:15.564Z,12.90
2023-10-12T15:45:03.991Z,10.20
2023-10-12T15:48:52.050Z,12.00
2023-10-12T15:52:40.292Z,11.10
2023-10-12T15:56:28.351Z,13.20
2023-10-12T16:00:10.885Z,9.60
2023-10-12T16:04:03.634Z,12.70
2023-10-12T16:07:35.899Z,14.00
2023-10-12T16:11:26.286Z,10.60
2023-10-12T16:15:04.606Z,8.70
2023-10-12T16:18:46.479Z,9.90
2023-10-12T16:22:36.181Z,13.50
2023-10-12T16:26:10.192Z,15.40
2023-10-12T16:30:00.469Z,15.50
2023-10-12T16:33:48.637Z,17.00
2023-10-12T16:37:30.971Z,14.50
2023-10-12T16:41:19.344Z,16.60
2023-10-12T16:45:08.007Z,13.90
2023-10-12T16:48:57.246Z,15.60
2023-10-12T16:52:46.010Z,10.70
2023-10-12T16:56:28.610Z,13.30
2023-10-12T17:00:17.771Z,13.90
2023-10-12T17:03:58.513Z,13.60
2023-10-12T17:07:47.306Z,10.30
2023-10-12T17:11:25.577Z,15.30
2023-10-12T17:15:14.928Z,11.70
2023-10-12T17:19:03.332Z,14.40
2023-10-12T17:23:15.582Z,12.30
2023-10-12T17:27:04.300Z,14.40
2023-10-12T17:30:52.933Z,14.90
2023-10-12T17:34:42.633Z,14.60
2023-10-12T17:38:30.973Z,11.60
2023-10-12T17:41:44.739Z,14.90
2023-10-12T17:45:33.286Z,13.30
2023-10-12T17:49:21.335Z,13.30
2023-10-12T17:53:09.718Z,13.30
2023-10-12T17:56:58.149Z,13.80
2023-10-12T18:00:46.970Z,11.70
2023-10-12T18:04:35.025Z,15.50
2023-10-12T18:08:10.728Z,11.40
2023-10-12T18:12:01.574Z,11.30
2023-10-12T18:15:42.941Z,13.60
2023-10-12T18:19:30.909Z,7.50
2023-10-12T18:23:11.041Z,13.00
2023-10-12T18:26:35.289Z,16.40
2023-10-12T18:30:17.406Z,10.40
2023-10-12T18:34:17.315Z,10.40
2023-10-12T18:37:36.832Z,12.80
2023-10-12T18:41:13.605Z,11.80
2023-10-12T18:44:40.308Z,15.00
2023-10-12T18:47:38.011Z,10.30
2023-10-12T18:50:55.968Z,15.70
2023-10-12T18:54:43.627Z,16.70
2023-10-12T18:58:01.242Z,15.50
2023-10-12T19:01:34.570Z,23.00
2023-10-12T19:05:18.376Z,20.10
2023-10-12T19:08:28.699Z,11.90
2023-10-12T19:11:41.937Z,12.10
2023-10-12T19:14:49.369Z,9.20
2023-10-12T19:18:23.578Z,31.20
2023-10-12T19:21:18.751Z,39.20
2023-10-12T19:24:42.648Z,9.10
2023-10-12T19:28:18.129Z,21.50
2023-10-12T19:32:06.163Z,26.20
2023-10-12T19:35:22.336Z,23.10
2023-10-12T19:38:42.979Z,23.30
2023-10-12T19:42:00.596Z,21.10
2023-10-12T19:45:19.604Z,22.20
2023-10-12T19:48:50.043Z,14.60
2023-10-12T19:52:38.109Z,21.00
2023-10-12T19:56:06.205Z,21.50
2023-10-12T19:58:59.729Z,44.60
2023-10-12T20:02:28.866Z,54.70
2023-10-12T20:06:09.229Z,63.70
2023-10-12T20:09:49.407Z,40.20
2023-10-12T20:13:42.742Z,51.80
2023-10-12T20:17:29.811Z,48.80
2023-10-12T20:21:24.203Z,41.80
2023-10-12T20:25:27.300Z,43.40
2023-10-12T20:29:04.555Z,38.10
2023-10-12T20:32:53.028Z,34.50
2023-10-12T20:36:41.746Z,47.80
2023-10-12T20:40:01.398Z,38.70
2023-10-12T20:43:27.035Z,44.70
2023-10-12T20:47:14.847Z,54.20
2023-10-12T20:51:03.525Z,52.90
2023-10-12T20:54:51.577Z,48.30
2023-10-12T20:58:13.595Z,48.10
2023-10-12T21:05:35.080Z,39.60
2023-10-12T21:09:22.983Z,41.90
2023-10-12T21:13:04.123Z,40.40
2023-10-12T21:16:52.653Z,42.00
2023-10-12T21:20:34.624Z,40.00
2023-10-12T21:24:28.513Z,42.80
2023-10-12T21:28:17.454Z,54.20
2023-10-12T21:32:10.074Z,80.10
2023-10-12T21:35:27.009Z,76.10
2023-10-12T21:39:03.457Z,69.50
2023-10-12T21:42:38.746Z,55.40
2023-10-12T21:46:10.540Z,57.20
2023-10-12T21:49:35.027Z,54.40
2023-10-12T21:53:13.072Z,47.50
2023-10-12T21:56:57.740Z,52.90
2023-10-12T22:00:27.852Z,48.30
2023-10-12T22:04:13.659Z,50.50
2023-10-12T22:07:48.197Z,40.90
2023-10-12T22:11:26.201Z,40.70
2023-10-12T22:15:23.399Z,47.00
2023-10-12T22:18:46.913Z,48.30
2023-10-12T22:22:20.012Z,51.50
2023-10-12T22:25:38.377Z,42.40
2023-10-12T22:29:30.333Z,42.20
2023-10-12T22:32:58.689Z,49.70
2023-10-12T22:36:47.397Z,52.80
2023-10-12T22:40:31.048Z,44.10
2023-10-12T22:44:19.404Z,44.30
2023-10-12T22:47:44.636Z,50.40
2023-10-12T22:51:32.752Z,41.70
2023-10-12T22:55:20.870Z,48.70
2023-10-12T22:59:01.093Z,44.20
2023-10-12T23:02:43.069Z,39.50
2023-10-12T23:06:13.920Z,39.90
2023-10-12T23:10:01.522Z,40.50
2023-10-12T23:13:47.593Z,45.00
2023-10-12T23:17:35.710Z,47.00
2023-10-12T23:21:24.362Z,46.60
2023-10-12T23:25:02.729Z,42.50
2023-10-12T23:28:51.059Z,48.70
2023-10-12T23:36:50.801Z,50.00
2023-10-12T23:39:29.745Z,53.40
2023-10-12T23:42:08.768Z,50.50
2023-10-12T23:45:08.553Z,53.60
2023-10-12T23:47:40.307Z,53.30
2023-10-12T23:51:02.817Z,52.00
2023-10-12T23:53:56.181Z,53.20
2023-10-12T23:57:12.166Z,53.90
2023-10-12T23:59:45.968Z,55.10
